createdAt,value
2022-08-17T00:00:43.055Z,19.57
2022-08-17T00:03:10.479Z,19.52
2022-08-17T00:05:44.802Z,19.49
2022-08-17T00:08:15.453Z,19.45
2022-08-17T00:10:45.651Z,19.45
2022-08-17T00:13:21.751Z,19.43
2022-08-17T00:15:50.130Z,19.40
2022-08-17T00:19:00.360Z,19.37
2022-08-17T00:21:10.943Z,19.36
2022-08-17T00:23:44.439Z,19.31
2022-08-17T00:26:34.677Z,19.29
2022-08-17T00:29:08.862Z,19.30
2022-08-17T00:31:37.697Z,19.30
2022-08-17T00:34:08.917Z,19.31
2022-08-17T00:36:37.497Z,19.30
2022-08-17T00:39:06.049Z,19.26
2022-08-17T00:41:35.931Z,19.20
2022-08-17T00:44:06.629Z,19.13
2022-08-17T00:46:40.478Z,19.09
2022-08-17T00:49:10.546Z,19.06
2022-08-17T00:51:41.359Z,19.04
2022-08-17T00:54:16.744Z,19.00
2022-08-17T00:56:51.195Z,18.98
2022-08-17T00:59:22.831Z,18.95
2022-08-17T01:03:29.014Z,18.93
2022-08-17T01:06:01.004Z,18.90
2022-08-17T01:08:31.199Z,18.90
2022-08-17T01:11:05.588Z,18.90
2022-08-17T01:13:41.488Z,18.88
2022-08-17T01:16:18.606Z,18.87
2022-08-17T01:18:50.810Z,18.81
2022-08-17T01:21:42.224Z,18.77
2022-08-17T01:24:10.754Z,18.75
2022-08-17T01:26:43.534Z,18.74
2022-08-17T01:29:13.298Z,18.73
2022-08-17T01:31:49.009Z,18.72
2022-08-17T01:34:18.446Z,18.73
2022-08-17T01:36:49.061Z,18.74
2022-08-17T01:39:23.495Z,18.73
2022-08-17T01:41:58.784Z,18.68
2022-08-17T01:44:28.168Z,18.64
2022-08-17T01:46:56.525Z,18.62
2022-08-17T01:49:25.203Z,18.60
2022-08-17T01:51:53.761Z,18.59
2022-08-17T01:54:24.104Z,18.57
2022-08-17T01:56:53.126Z,18.55
2022-08-17T01:59:21.488Z,18.53
2022-08-17T02:01:50.841Z,18.52
2022-08-17T02:04:19.431Z,18.51
2022-08-17T02:06:53.378Z,18.48
2022-08-17T02:09:26.259Z,18.48
2022-08-17T02:12:37.252Z,18.47
2022-08-17T02:14:52.296Z,18.44
2022-08-17T02:17:20.963Z,18.42
2022-08-17T02:19:51.851Z,18.40
2022-08-17T02:22:20.228Z,18.37
2022-08-17T02:25:01.018Z,18.36
2022-08-17T02:27:30.815Z,18.35
2022-08-17T02:29:59.777Z,18.34
2022-08-17T02:32:28.743Z,18.33
2022-08-17T02:34:58.476Z,18.31
2022-08-17T02:37:28.917Z,18.33
2022-08-17T02:39:58.816Z,18.30
2022-08-17T02:42:34.252Z,18.30
2022-08-17T02:45:05.640Z,18.30
2022-08-17T02:47:35.004Z,18.28
2022-08-17T02:50:05.174Z,18.25
2022-08-17T02:52:42.828Z,18.17
2022-08-17T02:55:22.507Z,18.03
2022-08-17T02:57:51.469Z,17.94
2022-08-17T03:00:23.531Z,17.93
2022-08-17T03:02:53.040Z,17.93
2022-08-17T03:05:23.766Z,17.95
2022-08-17T03:07:52.436Z,17.96
2022-08-17T03:10:22.206Z,17.95
2022-08-17T03:12:51.087Z,17.94
2022-08-17T03:15:26.223Z,17.94
2022-08-17T03:17:56.973Z,17.94
2022-08-17T03:20:25.674Z,17.93
2022-08-17T03:22:56.615Z,17.89
2022-08-17T03:25:34.564Z,17.84
2022-08-17T03:28:04.384Z,17.82
2022-08-17T03:30:33.266Z,17.80
2022-08-17T03:33:04.559Z,17.83
2022-08-17T03:35:37.045Z,17.84
2022-08-17T03:38:05.923Z,17.87
2022-08-17T03:40:55.423Z,17.90
2022-08-17T03:43:23.409Z,17.94
2022-08-17T03:46:32.457Z,17.96
2022-08-17T03:49:18.300Z,17.98
2022-08-17T03:52:05.249Z,18.00
2022-08-17T03:54:52.829Z,18.00
2022-08-17T03:57:21.938Z,18.02
2022-08-17T03:59:51.136Z,18.05
2022-08-17T04:02:24.330Z,18.08
2022-08-17T04:04:54.412Z,18.11
2022-08-17T04:07:28.302Z,18.15
2022-08-17T04:09:58.325Z,18.22
2022-08-17T04:12:31.340Z,18.30
2022-08-17T04:14:59.743Z,18.38
2022-08-17T04:17:29.490Z,18.43
2022-08-17T04:19:58.198Z,18.50
2022-08-17T04:22:30.978Z,18.55
2022-08-17T04:25:18.655Z,18.59
2022-08-17T04:27:48.882Z,18.90
2022-08-17T04:30:17.297Z,19.62
2022-08-17T04:33:06.157Z,20.39
2022-08-17T04:35:54.127Z,21.23
2022-08-17T04:38:25.900Z,22.03
2022-08-17T04:41:13.395Z,22.72
2022-08-17T04:43:44.058Z,23.40
2022-08-17T04:46:16.125Z,23.89
2022-08-17T04:48:49.840Z,24.19
2022-08-17T04:51:29.437Z,24.28
2022-08-17T04:54:01.288Z,24.16
2022-08-17T04:56:31.159Z,23.69
2022-08-17T04:59:21.525Z,22.85
2022-08-17T05:01:51.955Z,22.27
2022-08-17T05:04:33.845Z,22.06
2022-08-17T05:07:04.383Z,22.00
2022-08-17T05:09:33.814Z,21.99
2022-08-17T05:12:02.624Z,21.98
2022-08-17T05:14:33.037Z,21.95
2022-08-17T05:17:07.088Z,21.84
2022-08-17T05:19:37.894Z,21.82
2022-08-17T05:22:06.597Z,21.92
2022-08-17T05:24:38.279Z,22.04
2022-08-17T05:27:07.811Z,22.05
2022-08-17T05:29:36.996Z,22.10
2022-08-17T05:32:38.000Z,22.12
2022-08-17T05:35:01.092Z,22.17
2022-08-17T05:37:30.184Z,22.35
2022-08-17T05:40:01.264Z,22.53
2022-08-17T05:42:29.676Z,22.71
2022-08-17T05:44:59.036Z,22.78
2022-08-17T05:47:27.850Z,22.75
2022-08-17T05:49:56.683Z,22.85
2022-08-17T05:52:25.404Z,23.00
2022-08-17T05:55:23.150Z,23.07
2022-08-17T05:58:23.681Z,23.09
2022-08-17T06:01:10.254Z,23.23
2022-08-17T06:04:32.615Z,23.23
2022-08-17T06:07:25.087Z,23.39
2022-08-17T06:10:17.692Z,23.55
2022-08-17T06:13:07.954Z,23.77
2022-08-17T06:16:34.175Z,23.92
2022-08-17T06:19:27.213Z,24.20
2022-08-17T06:21:56.615Z,24.21
2022-08-17T06:24:39.969Z,24.32
2022-08-17T06:27:20.022Z,24.44
2022-08-17T06:30:00.927Z,24.60
2022-08-17T06:32:29.795Z,24.70
2022-08-17T06:35:00.997Z,24.71
2022-08-17T06:38:09.432Z,24.75
2022-08-17T06:40:54.202Z,24.87
2022-08-17T06:43:39.965Z,25.01
2022-08-17T06:46:08.188Z,25.09
2022-08-17T06:48:47.510Z,25.11
2022-08-17T06:51:42.383Z,25.19
2022-08-17T06:54:19.963Z,25.35
2022-08-17T06:56:59.726Z,25.49
2022-08-17T06:59:54.858Z,25.50
2022-08-17T07:02:52.680Z,25.46
2022-08-17T07:05:30.814Z,25.47
2022-08-17T07:08:16.785Z,25.56
2022-08-17T07:10:57.233Z,25.60
2022-08-17T07:13:31.423Z,25.71
2022-08-17T07:16:23.784Z,25.79
2022-08-17T07:18:54.800Z,25.85
2022-08-17T07:21:56.365Z,25.84
2022-08-17T07:24:37.391Z,25.86
2022-08-17T07:27:17.426Z,25.87
2022-08-17T07:29:50.935Z,25.88
2022-08-17T07:32:24.508Z,25.97
2022-08-17T07:34:59.989Z,26.01
2022-08-17T07:37:28.685Z,26.05
2022-08-17T07:40:15.487Z,26.11
2022-08-17T07:43:04.950Z,26.30
2022-08-17T07:45:54.426Z,26.50
2022-08-17T07:48:26.260Z,26.51
2022-08-17T07:50:55.226Z,26.56
2022-08-17T07:53:25.982Z,26.59
2022-08-17T07:55:54.532Z,26.70
2022-08-17T07:58:24.328Z,26.75
2022-08-17T08:01:15.605Z,26.88
2022-08-17T08:03:46.366Z,26.91
2022-08-17T08:06:24.586Z,26.94
2022-08-17T08:08:56.048Z,26.91
2022-08-17T08:11:34.138Z,27.00
2022-08-17T08:14:28.228Z,27.04
2022-08-17T08:17:03.509Z,27.00
2022-08-17T08:19:33.437Z,26.99
2022-08-17T08:22:11.955Z,27.05
2022-08-17T08:24:59.117Z,27.16
2022-08-17T08:27:39.182Z,27.33
2022-08-17T08:30:12.308Z,27.50
2022-08-17T08:32:50.436Z,27.63
2022-08-17T08:35:33.076Z,27.76
2022-08-17T08:38:27.043Z,27.79
2022-08-17T08:41:05.753Z,27.80
2022-08-17T08:43:52.229Z,27.87
2022-08-17T08:46:53.270Z,27.96
2022-08-17T08:50:02.549Z,28.10
2022-08-17T08:52:46.756Z,28.13
2022-08-17T08:55:35.738Z,28.09
2022-08-17T08:58:32.093Z,28.07
2022-08-17T09:01:09.339Z,28.15
2022-08-17T09:04:19.966Z,28.35
2022-08-17T09:07:04.221Z,28.54
2022-08-17T09:10:03.351Z,28.69
2022-08-17T09:12:53.445Z,28.76
2022-08-17T09:15:27.793Z,28.79
2022-08-17T09:21:11.691Z,28.64
2022-08-17T09:24:04.997Z,28.69
2022-08-17T09:27:11.656Z,28.72
2022-08-17T09:29:48.352Z,28.73
2022-08-17T09:32:31.374Z,28.77
2022-08-17T09:35:06.008Z,28.85
2022-08-17T09:37:43.348Z,28.94
2022-08-17T09:40:21.429Z,29.02
2022-08-17T09:43:08.843Z,29.06
2022-08-17T09:45:51.599Z,29.05
2022-08-17T09:48:25.894Z,29.05
2022-08-17T09:51:04.759Z,29.09
2022-08-17T09:53:38.174Z,29.13
2022-08-17T09:56:17.708Z,29.14
2022-08-17T09:58:57.788Z,29.23
2022-08-17T10:01:56.222Z,29.18
2022-08-17T10:04:50.101Z,29.23
2022-08-17T10:07:46.702Z,29.33
2022-08-17T10:10:25.701Z,29.41
2022-08-17T10:13:16.864Z,29.49
2022-08-17T10:16:14.850Z,29.60
2022-08-17T10:18:43.369Z,29.66
2022-08-17T10:21:33.474Z,29.66
2022-08-17T10:24:25.873Z,29.76
2022-08-17T10:26:57.978Z,29.78
2022-08-17T10:29:29.513Z,29.75
2022-08-17T10:32:09.399Z,29.74
2022-08-17T10:34:41.195Z,29.74
2022-08-17T10:37:28.645Z,29.69
2022-08-17T10:40:15.380Z,29.62
2022-08-17T10:42:43.895Z,29.59
2022-08-17T10:45:26.461Z,29.67
2022-08-17T10:48:06.879Z,29.69
2022-08-17T10:51:07.812Z,29.58
2022-08-17T10:53:36.108Z,29.61
2022-08-17T10:56:12.819Z,29.55
2022-08-17T10:58:55.456Z,29.28
2022-08-17T11:01:33.040Z,29.07
2022-08-17T11:04:42.220Z,29.10
2022-08-17T11:07:26.063Z,29.40
2022-08-17T11:10:25.809Z,29.70
2022-08-17T11:13:08.011Z,29.93
2022-08-17T11:15:59.118Z,30.04
2022-08-17T11:18:58.011Z,30.12
2022-08-17T11:22:09.671Z,30.23
2022-08-17T11:24:44.849Z,30.16
2022-08-17T11:27:53.904Z,30.06
2022-08-17T11:30:43.495Z,30.04
2022-08-17T11:33:41.761Z,30.06
2022-08-17T11:36:31.905Z,30.02
2022-08-17T11:39:18.863Z,30.08
2022-08-17T11:42:20.199Z,30.08
2022-08-17T11:44:58.924Z,30.17
2022-08-17T11:48:25.949Z,30.12
2022-08-17T11:51:12.240Z,30.08
2022-08-17T11:53:40.672Z,30.04
2022-08-17T11:56:29.148Z,30.01
2022-08-17T11:58:58.878Z,30.10
2022-08-17T12:01:27.264Z,30.32
2022-08-17T12:04:24.597Z,30.46
2022-08-17T12:06:59.865Z,30.46
2022-08-17T12:09:33.618Z,30.46
2022-08-17T12:12:16.865Z,30.50
2022-08-17T12:15:10.044Z,30.54
2022-08-17T12:17:42.727Z,30.56
2022-08-17T12:20:43.693Z,30.73
2022-08-17T12:23:40.159Z,30.71
2022-08-17T12:26:19.643Z,30.76
2022-08-17T12:28:51.871Z,30.90
2022-08-17T12:31:25.050Z,31.02
2022-08-17T12:33:54.196Z,30.98
2022-08-17T12:36:25.237Z,30.99
2022-08-17T12:39:12.815Z,30.90
2022-08-17T12:41:46.959Z,30.92
2022-08-17T12:44:29.017Z,31.03
2022-08-17T12:47:22.403Z,31.09
2022-08-17T12:49:53.624Z,31.16
2022-08-17T12:52:28.487Z,31.11
2022-08-17T12:55:18.271Z,31.05
2022-08-17T12:57:49.608Z,31.07
2022-08-17T13:00:41.485Z,31.15
2022-08-17T13:03:21.918Z,31.22
2022-08-17T13:05:52.872Z,31.30
2022-08-17T13:08:29.667Z,31.35
2022-08-17T13:11:18.537Z,31.20
2022-08-17T13:13:56.873Z,31.26
2022-08-17T13:16:28.195Z,31.36
2022-08-17T13:19:09.923Z,31.32
2022-08-17T13:21:48.428Z,31.31
2022-08-17T13:24:21.278Z,31.22
2022-08-17T13:26:59.468Z,31.04
2022-08-17T13:29:51.491Z,30.93
2022-08-17T13:32:45.031Z,30.88
2022-08-17T13:35:39.523Z,30.82
2022-08-17T13:38:08.517Z,30.86
2022-08-17T13:40:41.800Z,30.89
2022-08-17T13:43:11.040Z,30.90
2022-08-17T13:45:51.207Z,30.92
2022-08-17T13:48:24.215Z,30.92
2022-08-17T13:50:54.947Z,31.09
2022-08-17T13:53:27.044Z,31.17
2022-08-17T13:55:58.769Z,31.10
2022-08-17T13:58:28.324Z,31.06
2022-08-17T14:00:56.907Z,31.03
2022-08-17T14:03:25.181Z,31.10
2022-08-17T14:05:53.802Z,31.27
2022-08-17T14:08:22.215Z,31.45
2022-08-17T14:10:58.038Z,31.48
2022-08-17T14:13:26.277Z,31.35
2022-08-17T14:15:56.559Z,31.23
2022-08-17T14:18:41.990Z,31.19
2022-08-17T14:21:13.652Z,31.22
2022-08-17T14:23:43.598Z,31.21
2022-08-17T14:26:17.889Z,31.16
2022-08-17T14:28:56.253Z,31.10
2022-08-17T14:31:25.466Z,31.04
2022-08-17T14:33:53.922Z,30.89
2022-08-17T14:36:22.235Z,30.86
2022-08-17T14:38:51.172Z,30.98
2022-08-17T14:41:22.184Z,31.10
2022-08-17T14:43:53.529Z,31.22
2022-08-17T14:46:21.757Z,31.36
2022-08-17T14:48:57.075Z,31.39
2022-08-17T14:51:29.666Z,31.31
2022-08-17T14:53:58.155Z,31.33
2022-08-17T14:56:26.614Z,31.34
2022-08-17T14:58:55.125Z,31.33
2022-08-17T15:01:25.038Z,31.24
2022-08-17T15:03:54.060Z,31.19
2022-08-17T15:06:22.555Z,31.14
2022-08-17T15:08:50.742Z,30.97
2022-08-17T15:11:19.204Z,30.77
2022-08-17T15:13:52.023Z,30.62
2022-08-17T15:16:20.971Z,30.56
2022-08-17T15:18:50.342Z,30.53
2022-08-17T15:21:19.055Z,30.42
2022-08-17T15:23:47.821Z,30.26
2022-08-17T15:26:16.851Z,30.14
2022-08-17T15:28:49.937Z,29.97
2022-08-17T15:31:31.658Z,29.70
2022-08-17T15:34:00.652Z,29.42
2022-08-17T15:36:29.013Z,29.30
2022-08-17T15:38:58.987Z,29.18
2022-08-17T15:41:28.264Z,29.08
2022-08-17T15:43:56.538Z,29.00
2022-08-17T15:46:26.106Z,28.89
2022-08-17T15:48:59.155Z,28.82
2022-08-17T15:51:30.577Z,28.77
2022-08-17T15:54:19.249Z,28.70
2022-08-17T15:56:51.238Z,28.64
2022-08-17T15:59:19.743Z,28.61
2022-08-17T16:03:11.127Z,28.58
2022-08-17T16:04:43.235Z,28.52
2022-08-17T16:07:12.356Z,28.45
2022-08-17T16:09:40.750Z,28.40
2022-08-17T16:12:17.831Z,28.34
2022-08-17T16:14:47.883Z,28.30
2022-08-17T16:17:38.734Z,28.26
2022-08-17T16:20:19.895Z,28.22
2022-08-17T16:22:50.074Z,28.17
2022-08-17T16:25:38.871Z,28.10
2022-08-17T16:28:20.027Z,28.03
2022-08-17T16:30:48.509Z,28.00
2022-08-17T16:33:17.052Z,27.96
2022-08-17T16:35:45.359Z,27.91
2022-08-17T16:38:13.532Z,27.87
2022-08-17T16:40:42.488Z,27.82
2022-08-17T16:43:12.172Z,27.78
2022-08-17T16:45:40.863Z,27.76
2022-08-17T16:48:10.215Z,27.73
2022-08-17T16:50:38.302Z,27.68
2022-08-17T16:53:16.341Z,27.65
2022-08-17T16:55:46.045Z,27.61
2022-08-17T16:58:15.268Z,27.56
2022-08-17T17:00:45.339Z,27.51
2022-08-17T17:03:20.737Z,27.45
2022-08-17T17:06:13.775Z,27.39
2022-08-17T17:09:16.901Z,27.32
2022-08-17T17:11:57.663Z,27.23
2022-08-17T17:14:30.317Z,27.14
2022-08-17T17:17:01.422Z,27.06
2022-08-17T17:19:56.895Z,27.01
2022-08-17T17:22:47.148Z,26.93
2022-08-17T17:25:31.037Z,26.85
2022-08-17T17:28:14.783Z,26.76
2022-08-17T17:30:52.472Z,26.67
2022-08-17T17:33:32.878Z,26.55
2022-08-17T17:36:33.143Z,26.45
2022-08-17T17:39:13.808Z,26.35
2022-08-17T17:41:44.419Z,26.26
2022-08-17T17:44:18.004Z,26.17
2022-08-17T17:46:56.712Z,26.07
2022-08-17T17:49:35.844Z,25.96
2022-08-17T17:52:14.332Z,25.85
2022-08-17T17:54:48.089Z,25.73
2022-08-17T17:57:51.627Z,25.62
2022-08-17T18:00:30.393Z,25.43
2022-08-17T18:03:16.850Z,25.33
2022-08-17T18:05:55.348Z,25.27
2022-08-17T18:08:45.735Z,25.21
2022-08-17T18:11:24.540Z,25.14
2022-08-17T18:14:05.290Z,25.09
2022-08-17T18:16:35.891Z,25.04
2022-08-17T18:19:04.019Z,24.98
2022-08-17T18:21:38.216Z,24.92
2022-08-17T18:24:08.733Z,24.85
2022-08-17T18:26:42.039Z,24.76
2022-08-17T18:29:46.969Z,24.71
2022-08-17T18:32:29.431Z,24.64
2022-08-17T18:34:59.643Z,24.56
2022-08-17T18:37:51.731Z,24.50
2022-08-17T18:40:20.131Z,24.42
2022-08-17T18:43:12.539Z,24.35
2022-08-17T18:45:50.124Z,24.23
2022-08-17T18:48:23.873Z,24.11
2022-08-17T18:50:54.910Z,24.05
2022-08-17T18:53:34.004Z,24.00
2022-08-17T18:56:30.954Z,23.94
2022-08-17T18:59:20.824Z,23.85
2022-08-17T19:02:15.304Z,23.79
2022-08-17T19:05:26.816Z,23.72
2022-08-17T19:08:31.645Z,23.64
2022-08-17T19:11:35.431Z,23.57
2022-08-17T19:14:06.912Z,23.52
2022-08-17T19:16:43.566Z,23.47
2022-08-17T19:19:23.395Z,23.44
2022-08-17T19:21:56.374Z,23.39
2022-08-17T19:24:30.739Z,23.36
2022-08-17T19:27:14.421Z,23.34
2022-08-17T19:30:08.359Z,23.32
2022-08-17T19:32:38.079Z,23.30
2022-08-17T19:35:12.452Z,23.27
2022-08-17T19:37:53.634Z,23.24
2022-08-17T19:41:06.322Z,23.22
2022-08-17T19:43:49.699Z,23.18
2022-08-17T19:46:49.837Z,23.17
2022-08-17T19:49:40.819Z,23.13
2022-08-17T19:52:38.688Z,23.14
2022-08-17T19:55:35.979Z,23.15
2022-08-17T19:58:07.759Z,23.16
2022-08-17T20:00:47.252Z,23.12
2022-08-17T20:03:41.849Z,23.09
2022-08-17T20:06:13.858Z,23.07
2022-08-17T20:09:01.086Z,23.06
2022-08-17T20:11:41.649Z,23.04
2022-08-17T20:14:23.739Z,23.03
2022-08-17T20:16:52.828Z,22.99
2022-08-17T20:19:29.296Z,22.97
2022-08-17T20:22:29.287Z,22.94
2022-08-17T20:25:08.503Z,22.91
2022-08-17T20:27:49.895Z,22.85
2022-08-17T20:30:24.333Z,22.78
2022-08-17T20:32:57.523Z,22.74
2022-08-17T20:35:37.873Z,22.70
2022-08-17T20:38:12.336Z,22.65
2022-08-17T20:41:01.297Z,22.59
2022-08-17T20:43:35.448Z,22.55
2022-08-17T20:46:20.026Z,22.54
2022-08-17T20:48:57.187Z,22.52
2022-08-17T20:51:39.557Z,22.47
2022-08-17T20:54:16.787Z,22.41
2022-08-17T20:56:45.109Z,22.35
2022-08-17T20:59:26.147Z,22.30
2022-08-17T21:02:08.950Z,22.26
2022-08-17T21:04:53.021Z,22.20
2022-08-17T21:07:42.659Z,22.15
2022-08-17T21:10:17.432Z,22.06
2022-08-17T21:12:51.858Z,21.96
2022-08-17T21:15:31.078Z,21.86
2022-08-17T21:18:09.662Z,21.85
2022-08-17T21:20:49.787Z,21.85
2022-08-17T21:23:40.374Z,21.85
2022-08-17T21:26:11.412Z,21.77
2022-08-17T21:29:29.557Z,21.70
2022-08-17T21:32:15.865Z,21.63
2022-08-17T21:35:06.729Z,21.60
2022-08-17T21:37:50.833Z,21.57
2022-08-17T21:40:25.697Z,21.56
2022-08-17T21:43:11.295Z,21.57
2022-08-17T21:45:42.994Z,21.56
2022-08-17T21:48:14.212Z,21.56
2022-08-17T21:50:57.877Z,21.57
2022-08-17T21:53:36.950Z,21.56
2022-08-17T21:56:07.035Z,21.55
2022-08-17T21:58:40.500Z,21.51
2022-08-17T22:01:35.243Z,21.43
2022-08-17T22:04:18.351Z,21.39
2022-08-17T22:06:56.729Z,21.34
2022-08-17T22:09:34.346Z,21.32
2022-08-17T22:12:02.567Z,21.31
2022-08-17T22:14:52.848Z,21.30
2022-08-17T22:17:29.209Z,21.28
2022-08-17T22:20:06.908Z,21.26
2022-08-17T22:22:59.894Z,21.23
2022-08-17T22:25:29.762Z,21.21
2022-08-17T22:28:06.775Z,21.18
2022-08-17T22:30:56.615Z,21.15
2022-08-17T22:33:33.586Z,21.10
2022-08-17T22:36:12.525Z,21.01
2022-08-17T22:38:43.616Z,20.95
2022-08-17T22:41:17.935Z,20.93
2022-08-17T22:43:46.188Z,20.85
2022-08-17T22:46:15.496Z,20.80
2022-08-17T22:48:54.350Z,20.80
2022-08-17T22:51:25.979Z,20.79
2022-08-17T22:54:35.553Z,20.78
2022-08-17T22:57:34.365Z,20.79
2022-08-17T23:00:03.295Z,20.66
2022-08-17T23:02:34.134Z,20.63
2022-08-17T23:05:12.976Z,20.65
2022-08-17T23:07:42.435Z,20.69
2022-08-17T23:10:13.605Z,20.71
2022-08-17T23:12:42.099Z,20.72
2022-08-17T23:15:16.610Z,20.73
2022-08-17T23:17:46.062Z,20.73
2022-08-17T23:20:16.049Z,20.68
2022-08-17T23:22:52.419Z,20.58
2022-08-17T23:25:28.283Z,20.52
2022-08-17T23:28:01.872Z,20.50
2022-08-17T23:30:32.896Z,20.50
2022-08-17T23:33:05.445Z,20.51
2022-08-17T23:35:40.242Z,20.53
2022-08-17T23:38:10.719Z,20.52
2022-08-17T23:40:40.371Z,20.50
2022-08-17T23:43:23.881Z,20.50
2022-08-17T23:46:00.840Z,20.51
2022-08-17T23:48:35.823Z,20.49
2022-08-17T23:51:10.308Z,20.43
2022-08-17T23:53:47.594Z,20.37
2022-08-17T23:56:19.463Z,20.34
2022-08-17T23:58:47.690Z,20.32
